createdAt,value
2023-03-21T00:13:18.621Z,5008.22021
2023-03-21T00:28:20.857Z,3120.31128
2023-03-21T00:43:23.110Z,2865.46265
2023-03-21T00:58:25.385Z,2297.44165
2023-03-21T01:13:27.774Z,1505.00183
2023-03-21T01:28:30.008Z,1016.85883
2023-03-21T01:43:32.297Z,503.35782
2023-03-21T01:58:34.546Z,158.48798
2023-03-21T02:13:36.778Z,27.89388
2023-03-21T02:28:38.997Z,1.2679
2023-03-21T02:43:41.277Z,0
2023-03-21T02:58:43.711Z,0
2023-03-21T03:13:46.110Z,0
2023-03-21T03:28:48.409Z,0
2023-03-21T03:43:50.701Z,0
2023-03-21T03:58:52.996Z,0
2023-03-21T04:13:55.262Z,0
2023-03-21T04:28:57.484Z,0
2023-03-21T04:43:59.738Z,0
2023-03-21T04:59:02.249Z,0
2023-03-21T05:14:04.454Z,0
2023-03-21T05:29:06.689Z,0
2023-03-21T05:44:08.945Z,0
2023-03-21T05:59:11.241Z,0
2023-03-21T06:14:13.660Z,0
2023-03-21T06:29:15.911Z,0
2023-03-21T06:44:18.157Z,0
2023-03-21T06:59:20.387Z,0
2023-03-21T07:14:22.854Z,0
2023-03-21T07:29:25.151Z,0
2023-03-21T07:44:27.503Z,0
2023-03-21T07:59:29.726Z,0
2023-03-21T08:14:32.126Z,0
2023-03-21T08:29:34.405Z,0
2023-03-21T08:44:36.717Z,0
2023-03-21T08:59:38.945Z,0
2023-03-21T09:14:41.176Z,0
2023-03-21T09:29:43.387Z,0
2023-03-21T09:44:45.643Z,0
2023-03-21T09:59:47.910Z,0
2023-03-21T10:14:50.290Z,0
2023-03-21T10:29:52.608Z,0
2023-03-21T10:44:55.020Z,0
2023-03-21T10:59:57.302Z,0
2023-03-21T11:14:59.539Z,0
2023-03-21T11:30:01.826Z,0
2023-03-21T11:45:04.042Z,0
2023-03-21T12:00:06.450Z,0
2023-03-21T12:15:08.660Z,0
2023-03-21T12:30:10.902Z,0
2023-03-21T12:45:15.774Z,0
2023-03-21T13:00:18.264Z,0
2023-03-21T13:15:23.954Z,1.2679
2023-03-21T13:30:26.915Z,16.48275
2023-03-21T13:45:29.142Z,155.95216
2023-03-21T14:00:31.506Z,598.45062
2023-03-21T14:15:35.374Z,1333.83484
2023-03-21T14:30:38.200Z,2212.49219
2023-03-21T14:45:40.868Z,3351.06982
2023-03-21T15:00:43.358Z,31238.61328
2023-03-21T15:15:45.691Z,24866.12891
2023-03-21T15:30:47.923Z,11970.28027
2023-03-21T15:45:50.225Z,14238.55957
2023-03-21T16:00:55.143Z,28442.88672
2023-03-21T16:15:57.784Z,36371.08984
2023-03-21T16:31:00.039Z,25671.24805
2023-03-21T16:46:02.400Z,23735.16016
2023-03-21T17:01:04.665Z,12643.53711
2023-03-21T17:16:06.852Z,11507.49512
2023-03-21T17:31:09.255Z,11059.9248
2023-03-21T17:46:11.511Z,10119.14062
2023-03-21T18:01:13.752Z,9784.41406
2023-03-21T18:16:16.123Z,9193.57031
2023-03-21T18:31:19.787Z,8737.125
2023-03-21T18:46:22.585Z,8385.91602
2023-03-21T19:01:24.981Z,8084.15479
2023-03-21T19:16:30.766Z,7883.82568
2023-03-21T19:31:37.064Z,8023.29541
2023-03-21T19:46:39.370Z,8046.11768
2023-03-21T20:01:41.785Z,7904.1123
2023-03-21T20:16:44.801Z,7912.98779
2023-03-21T20:31:47.105Z,7523.74121
2023-03-21T20:46:49.440Z,7530.08057
2023-03-21T21:01:52.046Z,7566.8501
2023-03-21T21:16:54.715Z,7982.72217
2023-03-21T21:31:57.103Z,8084.15479
2023-03-21T21:46:59.649Z,9013.52832
2023-03-21T22:02:02.063Z,9450.95508
2023-03-21T22:17:04.314Z,9807.23633
2023-03-21T22:32:06.832Z,9788.21777
2023-03-21T22:47:09.065Z,10455.13477
2023-03-21T23:02:11.387Z,10787.3252
2023-03-21T23:17:13.663Z,10928.0625
2023-03-21T23:32:15.896Z,10983.85059
2023-03-21T23:47:18.124Z,10718.8584
